KLOU/LOU METAR and TAF weather

Enter ICAO airport designator
Station Type Date Time Source
KLOU METAR 2020/02/28 07:53 UTC NOAA

KLOU 280753Z AUTO 24007KT 10SM OVC095 03/M06 A3005 RMK AO2 SLP178 T00281056


Station Type Date Time Source
KLOU Decoded METAR 2020/02/28 07:53 UTC NOAA

BOWMAN FIELD, KY, United States (KLOU) 38-14N 085-40W 164M
Feb 28, 2020 - 02:53 AM EST / 2020.02.28 0753 UTC
Wind: from the WSW (240 degrees) at 8 MPH (7 KT):0
Visibility: 10 mile(s):0
Sky conditions: overcast
Temperature: 37.0 F (2.8 C)
Dew Point: 21.9 F (-5.6 C)
Relative Humidity: 53%
Pressure (altimeter): 30.05 in. Hg (1017 hPa)
ob: KLOU 280753Z AUTO 24007KT 10SM OVC095 03/M06 A3005 RMK AO2 SLP178 T00281056
cycle: 8

Station Type Date Time Source
KLOU TAF UTC NOAA

Error!

Example: see airport list